Time;durP1;ratioP1;P1;durP2;ratioP2;P2;SDS_P1;SDS_P2;PMS_P1;PMS_P2;Temp;Humidity;BMP_temperature;BMP_pressure;BME280_temperature;BME280_humidity;BME280_pressure;Samples;Min_cycle;Max_cycle;Signal;HPM_P1;HPM_P2
2024/03/21 00:02:07;;;;;;;4.68;0.90;;;29.70;37.30;;;;;;5108688;28;20072;-50
2024/03/21 00:04:33;;;;;;;3.65;1.30;;;29.70;36.20;;;;;;5101369;28;20072;-52
2024/03/21 00:07:03;;;;;;;4.97;1.02;;;29.60;36.10;;;;;;5107607;28;20068;-53
2024/03/21 00:09:30;;;;;;;4.97;1.13;;;29.50;35.50;;;;;;5111155;28;20084;-51
2024/03/21 00:11:57;;;;;;;4.97;1.00;;;29.50;35.70;;;;;;5107297;28;21308;-52
2024/03/21 00:14:24;;;;;;;5.78;1.00;;;29.30;35.20;;;;;;5108781;28;20068;-49
2024/03/21 00:16:51;;;;;;;2.47;0.80;;;29.00;34.80;;;;;;5103172;28;20096;-53
2024/03/21 00:19:18;;;;;;;5.45;0.90;;;29.10;36.00;;;;;;5108046;28;20072;-49
2024/03/21 00:21:45;;;;;;;5.47;1.33;;;29.00;35.60;;;;;;5108775;28;20098;-51
2024/03/21 00:24:13;;;;;;;5.68;1.00;;;29.00;35.40;;;;;;5107650;28;20064;-50
2024/03/21 00:26:40;;;;;;;7.38;0.90;;;28.90;35.30;;;;;;5108041;28;20075;-50
2024/03/21 00:29:07;;;;;;;2.85;0.90;;;28.70;34.80;;;;;;5110695;28;20185;-50
2024/03/21 00:31:36;;;;;;;7.00;0.90;;;28.70;34.40;;;;;;5111943;28;20096;-51
2024/03/21 00:34:02;;;;;;;2.13;0.98;;;28.70;34.50;;;;;;5112416;28;20064;-52
2024/03/21 00:36:30;;;;;;;6.88;1.00;;;28.80;34.10;;;;;;5108024;28;20072;-55
2024/03/21 00:38:57;;;;;;;6.13;0.90;;;28.70;34.20;;;;;;5108650;28;20068;-50
2024/03/21 00:41:24;;;;;;;9.75;1.30;;;28.70;34.30;;;;;;5111028;28;20491;-51
2024/03/21 00:43:50;;;;;;;4.72;1.40;;;28.60;34.90;;;;;;5108356;28;20155;-50
2024/03/21 00:46:17;;;;;;;4.10;1.10;;;28.50;34.60;;;;;;5110659;28;20129;-49
2024/03/21 00:48:44;;;;;;;5.25;1.17;;;28.30;34.60;;;;;;5108365;28;20075;-50
2024/03/21 00:51:10;;;;;;;4.43;1.20;;;28.20;35.50;;;;;;5111900;28;20079;-48
2024/03/21 00:53:37;;;;;;;6.20;1.10;;;28.20;35.80;;;;;;5112120;28;20112;-52
2024/03/21 00:56:04;;;;;;;7.60;1.98;;;28.10;35.30;;;;;;5111924;28;20064;-51
2024/03/21 00:58:30;;;;;;;2.72;0.88;;;28.00;35.80;;;;;;5111697;28;20096;-50
2024/03/21 01:00:57;;;;;;;1.30;0.90;;;27.80;35.40;;;;;;5109802;28;20071;-48
2024/03/21 01:03:23;;;;;;;6.68;0.85;;;27.70;35.60;;;;;;5112109;28;20513;-51
2024/03/21 01:05:59;;;;;;;2.22;0.80;;;27.60;35.70;;;;;;5088547;28;20069;-49
2024/03/21 01:08:25;;;;;;;5.47;1.20;;;27.40;35.90;;;;;;5103186;28;20072;-50
2024/03/21 01:10:52;;;;;;;5.30;1.25;;;27.40;36.60;;;;;;5107957;28;20071;-51
2024/03/21 01:13:22;;;;;;;5.65;0.95;;;27.30;36.70;;;;;;5108213;28;20071;-51
2024/03/21 01:15:48;;;;;;;4.82;1.00;;;27.20;36.80;;;;;;5094966;28;20085;-50
2024/03/21 01:18:15;;;;;;;7.35;1.00;;;27.10;36.40;;;;;;5089016;28;20097;-49
2024/03/21 01:20:42;;;;;;;3.70;0.95;;;27.00;36.50;;;;;;5090836;28;20076;-48
2024/03/21 01:23:09;;;;;;;5.85;0.90;;;27.00;36.90;;;;;;5090921;28;20511;-49
2024/03/21 01:25:37;;;;;;;1.15;0.70;;;26.90;37.30;;;;;;5089860;28;20079;-52
2024/03/21 01:28:05;;;;;;;5.47;0.85;;;26.80;38.00;;;;;;5104698;28;20082;-52
2024/03/21 01:30:35;;;;;;;6.30;1.15;;;26.70;38.10;;;;;;5111541;28;20163;-48
2024/03/21 01:33:03;;;;;;;4.05;0.90;;;26.60;38.20;;;;;;5098394;28;20434;-48
2024/03/21 01:35:30;;;;;;;6.53;1.10;;;26.50;38.40;;;;;;5111395;28;20064;-50
2024/03/21 01:37:57;;;;;;;7.43;1.05;;;26.30;39.20;;;;;;5098268;28;20096;-48
2024/03/21 01:40:24;;;;;;;8.57;1.38;;;26.20;39.40;;;;;;5100176;28;20514;-48
2024/03/21 01:42:51;;;;;;;6.65;1.33;;;26.10;39.40;;;;;;5107195;28;20064;-48
2024/03/21 01:45:18;;;;;;;2.90;0.90;;;25.90;39.20;;;;;;5103779;28;20114;-51
2024/03/21 01:47:45;;;;;;;4.32;1.13;;;25.80;38.20;;;;;;5091017;28;20079;-52
2024/03/21 01:50:12;;;;;;;9.23;1.55;;;25.80;38.10;;;;;;5095055;28;20060;-50
2024/03/21 01:52:41;;;;;;;6.88;1.20;;;25.70;38.20;;;;;;5113672;28;20060;-52
2024/03/21 01:55:14;;;;;;;9.13;1.60;;;25.60;38.60;;;;;;5104423;28;20079;-54
2024/03/21 01:57:41;;;;;;;3.08;1.10;;;25.50;39.30;;;;;;5100574;28;20095;-50
2024/03/21 02:00:09;;;;;;;9.10;1.40;;;25.30;39.10;;;;;;5110137;28;20072;-50
2024/03/21 02:02:35;;;;;;;6.82;1.73;;;25.20;39.30;;;;;;5114952;28;20072;-49
2024/03/21 02:05:04;;;;;;;10.93;2.40;;;25.00;40.10;;;;;;5114737;28;20084;-51
2024/03/21 02:07:32;;;;;;;11.75;2.92;;;24.90;39.90;;;;;;5113499;28;20068;-51
2024/03/21 02:09:58;;;;;;;15.27;2.50;;;24.80;40.50;;;;;;5114981;28;20113;-48
2024/03/21 02:12:48;;;;;;;7.78;2.63;;;24.70;40.70;;;;;;5114799;28;20399;-52
2024/03/21 02:15:15;;;;;;;9.70;2.55;;;24.50;41.50;;;;;;5115470;28;20068;-53
2024/03/21 02:17:41;;;;;;;11.52;3.08;;;24.40;42.70;;;;;;5115973;28;20103;-55
2024/03/21 02:20:09;;;;;;;30.17;9.88;;;24.30;43.60;;;;;;5114736;28;20064;-49
2024/03/21 02:22:36;;;;;;;21.55;12.18;;;24.20;43.50;;;;;;5114631;28;20072;-50
2024/03/21 02:25:09;;;;;;;25.88;13.25;;;24.10;43.00;;;;;;5112656;28;20072;-50
2024/03/21 02:27:37;;;;;;;28.90;12.52;;;24.00;43.70;;;;;;5111740;28;20161;-49
2024/03/21 02:30:04;;;;;;;33.05;12.60;;;24.00;43.30;;;;;;5114578;28;20120;-51
2024/03/21 02:32:30;;;;;;;31.20;11.70;;;23.90;43.40;;;;;;5108646;28;20075;-54
2024/03/21 02:34:57;;;;;;;18.27;10.73;;;23.80;44.50;;;;;;5092597;28;20156;-53
2024/03/21 02:37:24;;;;;;;28.33;10.57;;;23.70;45.00;;;;;;5109465;28;20543;-51
2024/03/21 02:39:53;;;;;;;24.02;9.73;;;23.60;45.40;;;;;;5093828;28;20061;-54
2024/03/21 02:42:21;;;;;;;27.08;9.27;;;23.60;45.70;;;;;;5095078;28;20072;-52
2024/03/21 02:44:48;;;;;;;23.13;8.55;;;23.60;45.70;;;;;;5114045;28;20112;-52
2024/03/21 02:47:16;;;;;;;25.00;7.78;;;23.50;46.00;;;;;;5114072;28;20075;-51
2024/03/21 02:49:43;;;;;;;28.35;7.60;;;23.40;45.90;;;;;;5114276;28;20151;-50
2024/03/21 02:52:10;;;;;;;41.40;7.25;;;23.40;46.20;;;;;;5112413;28;20103;-51
2024/03/21 02:54:36;;;;;;;27.38;6.05;;;23.20;47.60;;;;;;5114302;28;20075;-52
2024/03/21 02:57:04;;;;;;;29.15;5.75;;;23.20;46.80;;;;;;5108051;28;20108;-52
2024/03/21 02:59:33;;;;;;;46.78;6.38;;;23.20;46.40;;;;;;5114432;28;20185;-52
2024/03/21 03:02:00;;;;;;;31.05;6.10;;;23.20;46.20;;;;;;5109775;28;20117;-51
2024/03/21 03:04:27;;;;;;;46.88;6.80;;;23.10;46.70;;;;;;5108880;28;20136;-52
2024/03/21 03:06:53;;;;;;;47.70;8.32;;;23.10;47.10;;;;;;5108556;28;20087;-57
2024/03/21 03:09:20;;;;;;;46.33;9.35;;;23.00;47.70;;;;;;5098814;28;20121;-51
2024/03/21 03:11:46;;;;;;;55.58;9.30;;;22.90;48.20;;;;;;5092785;28;20413;-49
2024/03/21 03:14:13;;;;;;;69.88;8.63;;;22.90;48.20;;;;;;5098463;28;20068;-50
2024/03/21 03:16:39;;;;;;;53.00;9.82;;;22.80;48.90;;;;;;5097064;28;20072;-53
2024/03/21 03:19:06;;;;;;;48.88;9.80;;;22.70;49.20;;;;;;5111357;28;20068;-53
2024/03/21 03:21:33;;;;;;;60.72;10.82;;;22.70;49.10;;;;;;5106931;28;20064;-48
2024/03/21 03:23:59;;;;;;;65.57;12.23;;;22.60;48.80;;;;;;5113681;28;20490;-50
2024/03/21 03:26:26;;;;;;;58.35;11.57;;;22.50;48.20;;;;;;5113696;28;20068;-49
2024/03/21 03:28:53;;;;;;;78.05;12.63;;;22.50;48.50;;;;;;5110578;28;20131;-53
2024/03/21 03:31:20;;;;;;;74.57;11.98;;;22.50;49.10;;;;;;5113158;28;20171;-51
2024/03/21 03:36:32;;;;;;;75.22;12.50;;;22.40;49.90;;;;;;5102219;27;20086;-54
2024/03/21 03:38:58;;;;;;;82.32;12.07;;;22.30;50.30;;;;;;5114288;27;20072;-49
2024/03/21 03:41:25;;;;;;;74.18;12.65;;;22.30;50.20;;;;;;5109162;28;20083;-53
2024/03/21 03:43:52;;;;;;;73.90;11.77;;;22.30;50.00;;;;;;5101205;28;20565;-53
2024/03/21 03:46:19;;;;;;;62.10;12.80;;;22.30;50.10;;;;;;5100258;28;21050;-51
2024/03/21 03:48:45;;;;;;;76.22;12.82;;;22.30;50.50;;;;;;5108738;28;20403;-51
2024/03/21 03:51:12;;;;;;;73.90;12.52;;;22.30;50.40;;;;;;5110696;28;20068;-53
2024/03/21 03:53:39;;;;;;;76.40;12.00;;;22.30;49.90;;;;;;5106713;28;20083;-50
2024/03/21 03:56:07;;;;;;;63.28;14.20;;;22.30;50.00;;;;;;5117651;27;20086;-51
2024/03/21 03:58:34;;;;;;;69.53;12.80;;;22.20;49.60;;;;;;5106113;27;20145;-49
2024/03/21 04:01:02;;;;;;;62.25;12.40;;;22.30;49.50;;;;;;5108168;28;20155;-53
2024/03/21 04:03:29;;;;;;;52.95;12.23;;;22.30;49.50;;;;;;5110167;28;20154;-55
2024/03/21 04:06:04;;;;;;;62.33;12.65;;;22.30;49.10;;;;;;5106183;28;20112;-50
2024/03/21 04:08:31;;;;;;;65.32;11.43;;;22.30;49.30;;;;;;5112773;28;20083;-50
2024/03/21 04:10:59;;;;;;;72.45;12.25;;;22.30;48.80;;;;;;5111303;28;20066;-50
2024/03/21 04:13:26;;;;;;;76.20;14.15;;;22.30;49.30;;;;;;5097005;28;20224;-51
2024/03/21 04:15:58;;;;;;;64.43;13.35;;;22.20;48.90;;;;;;5106003;28;20455;-53
2024/03/21 04:18:25;;;;;;;71.90;12.18;;;22.20;49.70;;;;;;5112392;28;20216;-48
2024/03/21 04:20:52;;;;;;;63.25;12.68;;;22.20;50.40;;;;;;5112253;28;20193;-50
2024/03/21 04:23:20;;;;;;;102.57;12.82;;;22.10;50.80;;;;;;5106181;28;20088;-49
2024/03/21 04:25:48;;;;;;;69.03;12.43;;;21.90;51.20;;;;;;5107683;28;20064;-52
2024/03/21 04:28:19;;;;;;;68.70;13.60;;;21.80;51.10;;;;;;5108690;28;20079;-47
2024/03/21 04:30:51;;;;;;;73.07;12.25;;;21.80;51.00;;;;;;5108477;28;20160;-49
2024/03/21 04:33:19;;;;;;;76.65;12.15;;;21.80;50.90;;;;;;5109735;28;20087;-49
2024/03/21 04:35:47;;;;;;;88.85;11.88;;;21.80;51.00;;;;;;5096236;27;20069;-51
2024/03/21 04:38:14;;;;;;;49.28;11.27;;;21.80;52.50;;;;;;5088466;28;20100;-49
2024/03/21 04:40:41;;;;;;;58.30;13.05;;;21.70;52.10;;;;;;5106425;28;20272;-48
2024/03/21 04:43:08;;;;;;;57.67;11.90;;;21.60;51.90;;;;;;5109420;28;20096;-51
2024/03/21 04:45:36;;;;;;;42.38;10.85;;;21.60;52.30;;;;;;5103495;28;20136;-49
2024/03/21 04:48:03;;;;;;;73.97;13.50;;;21.50;52.30;;;;;;5090466;28;20148;-47
2024/03/21 04:50:29;;;;;;;71.60;19.08;;;21.50;52.50;;;;;;5097878;28;20129;-49
2024/03/21 04:52:56;;;;;;;91.15;26.88;;;21.40;52.70;;;;;;5099911;28;20538;-48
2024/03/21 04:55:23;;;;;;;88.90;42.53;;;21.40;52.80;;;;;;5093989;28;20122;-50
2024/03/21 04:57:49;;;;;;;131.38;58.17;;;21.30;52.60;;;;;;5097067;28;20131;-50
2024/03/21 05:00:17;;;;;;;129.77;61.38;;;21.40;52.20;;;;;;5106704;28;20064;-49
2024/03/21 05:02:44;;;;;;;117.82;62.20;;;21.40;52.10;;;;;;5100246;28;20423;-48
2024/03/21 05:05:10;;;;;;;127.13;65.28;;;21.40;52.10;;;;;;5101813;28;20064;-51
2024/03/21 05:07:37;;;;;;;120.93;52.33;;;21.40;51.80;;;;;;5093993;28;20069;-56
2024/03/21 05:10:04;;;;;;;87.75;32.45;;;21.40;52.30;;;;;;5104271;28;20068;-48
2024/03/21 05:12:31;;;;;;;70.30;28.90;;;21.40;52.40;;;;;;5105310;28;20406;-49
2024/03/21 05:14:58;;;;;;;68.57;21.50;;;21.40;52.50;;;;;;5108698;28;20095;-49
2024/03/21 05:17:24;;;;;;;48.13;16.20;;;21.30;52.30;;;;;;5098366;28;20100;-54
2024/03/21 05:19:50;;;;;;;65.93;15.40;;;21.30;52.50;;;;;;5103811;28;20542;-55
2024/03/21 05:22:17;;;;;;;49.80;15.25;;;21.30;52.50;;;;;;5105229;28;20155;-55
2024/03/21 05:24:43;;;;;;;52.08;12.90;;;21.20;53.10;;;;;;5115635;28;20067;-53
2024/03/21 05:27:15;;;;;;;45.28;12.15;;;21.20;53.40;;;;;;5111685;27;20141;-54
2024/03/21 05:29:43;;;;;;;38.17;11.98;;;21.10;53.90;;;;;;5082469;28;20250;-55
2024/03/21 05:32:09;;;;;;;41.72;11.73;;;21.10;53.50;;;;;;5088187;28;20069;-55
2024/03/21 05:34:36;;;;;;;38.10;11.50;;;21.00;53.60;;;;;;5085419;28;20072;-52
2024/03/21 05:37:02;;;;;;;55.10;21.38;;;20.90;53.30;;;;;;5088204;28;20096;-54
2024/03/21 05:39:29;;;;;;;51.97;16.88;;;20.90;54.20;;;;;;5088311;28;20096;-52
2024/03/21 05:41:55;;;;;;;42.13;15.32;;;20.70;55.80;;;;;;5087614;28;20142;-54
2024/03/21 05:44:22;;;;;;;71.70;32.92;;;20.70;55.50;;;;;;5089890;28;20064;-55
2024/03/21 05:46:50;;;;;;;53.92;23.77;;;20.70;55.50;;;;;;5086951;28;20106;-53
2024/03/21 05:49:16;;;;;;;50.63;16.90;;;20.70;56.20;;;;;;5089484;28;20452;-56
2024/03/21 05:51:43;;;;;;;62.30;16.00;;;20.60;56.90;;;;;;5088939;28;20100;-51
2024/03/21 05:54:10;;;;;;;65.32;16.83;;;20.40;56.40;;;;;;5086169;28;20079;-50
2024/03/21 05:56:37;;;;;;;48.17;13.50;;;20.40;56.50;;;;;;5089653;28;20072;-53
2024/03/21 05:59:04;;;;;;;45.20;12.25;;;20.30;56.80;;;;;;5088668;28;20096;-50
2024/03/21 06:01:33;;;;;;;51.45;12.38;;;20.40;56.80;;;;;;5087303;28;20407;-53
2024/03/21 06:04:01;;;;;;;51.78;12.77;;;20.30;56.70;;;;;;5085428;28;20163;-53
2024/03/21 06:06:28;;;;;;;49.72;11.95;;;20.30;56.90;;;;;;5084009;28;20076;-51
2024/03/21 06:08:56;;;;;;;46.53;11.50;;;20.20;57.50;;;;;;5087891;28;20072;-54
2024/03/21 06:11:23;;;;;;;43.03;11.35;;;20.10;57.20;;;;;;5090116;28;20069;-54
2024/03/21 06:13:50;;;;;;;41.55;11.52;;;20.10;57.30;;;;;;5080399;28;20081;-54
2024/03/21 06:16:18;;;;;;;60.15;24.90;;;20.00;57.90;;;;;;5085218;28;20069;-55
2024/03/21 06:18:44;;;;;;;54.13;12.27;;;20.00;57.30;;;;;;5087030;28;20123;-54
2024/03/21 06:21:11;;;;;;;51.65;11.60;;;20.00;58.50;;;;;;5086629;28;20545;-56
2024/03/21 06:23:37;;;;;;;46.80;11.93;;;20.00;58.40;;;;;;5090306;28;20072;-52
2024/03/21 06:26:04;;;;;;;33.60;11.55;;;20.10;59.10;;;;;;5083092;28;20148;-52
2024/03/21 06:28:30;;;;;;;43.40;11.02;;;20.30;58.80;;;;;;5086376;28;20166;-53
2024/03/21 06:30:57;;;;;;;40.42;10.77;;;20.40;58.90;;;;;;5107218;27;20064;-52
2024/03/21 06:33:23;;;;;;;45.83;10.38;;;20.60;57.70;;;;;;5105451;28;20072;-57
2024/03/21 06:35:50;;;;;;;43.72;11.18;;;20.60;58.40;;;;;;5106031;28;20075;-51
2024/03/21 06:38:16;;;;;;;52.08;11.38;;;20.70;57.50;;;;;;5104489;27;20100;-56
2024/03/21 06:40:42;;;;;;;38.97;10.52;;;20.70;57.30;;;;;;5106653;28;20159;-50
2024/03/21 06:43:09;;;;;;;52.40;10.48;;;20.70;56.80;;;;;;5107334;28;20113;-53
2024/03/21 06:45:37;;;;;;;41.88;11.18;;;20.70;57.00;;;;;;5101447;28;20110;-55
2024/03/21 06:48:04;;;;;;;43.70;10.98;;;20.70;56.90;;;;;;5101070;28;20163;-52
2024/03/21 06:50:30;;;;;;;49.40;11.10;;;20.70;58.00;;;;;;5101447;28;20068;-54
2024/03/21 06:53:00;;;;;;;48.70;10.60;;;20.60;57.70;;;;;;5105700;28;20473;-52
2024/03/21 06:55:26;;;;;;;52.35;10.65;;;20.50;58.70;;;;;;5101533;28;20144;-54
2024/03/21 06:57:57;;;;;;;53.83;10.88;;;20.60;57.40;;;;;;5107945;27;20126;-50
2024/03/21 07:00:27;;;;;;;57.92;12.00;;;20.70;57.10;;;;;;5102685;28;20513;-51
2024/03/21 07:02:57;;;;;;;58.50;11.07;;;20.70;56.60;;;;;;5106634;28;20068;-55
2024/03/21 07:05:23;;;;;;;49.92;11.18;;;20.60;58.20;;;;;;5106505;28;20079;-53
2024/03/21 07:07:51;;;;;;;39.20;11.13;;;20.50;58.20;;;;;;5106978;28;20093;-51
2024/03/21 07:10:21;;;;;;;55.45;11.57;;;20.40;58.20;;;;;;5104171;28;20107;-48
2024/03/21 07:12:47;;;;;;;44.60;11.10;;;20.30;58.40;;;;;;5107841;28;20072;-52
2024/03/21 07:15:16;;;;;;;53.38;12.05;;;20.20;58.50;;;;;;5101132;28;20076;-50
2024/03/21 07:17:43;;;;;;;51.78;12.38;;;20.20;58.70;;;;;;5102556;28;20119;-51
2024/03/21 07:20:13;;;;;;;66.15;12.05;;;20.10;58.40;;;;;;5106287;28;20509;-49
2024/03/21 07:22:40;;;;;;;62.45;12.80;;;20.20;58.90;;;;;;5103036;28;20215;-51
2024/03/21 07:25:07;;;;;;;62.45;14.15;;;20.20;58.60;;;;;;5102222;27;20075;-51
2024/03/21 07:27:34;;;;;;;60.15;12.27;;;20.30;58.70;;;;;;5102174;28;20138;-52
2024/03/21 07:30:00;;;;;;;51.13;12.30;;;20.40;58.70;;;;;;5103077;28;20461;-53
2024/03/21 07:32:27;;;;;;;50.22;12.55;;;20.20;59.80;;;;;;5105004;28;20067;-53
2024/03/21 07:34:53;;;;;;;56.97;12.70;;;20.10;59.90;;;;;;5100285;28;20426;-51
2024/03/21 07:37:20;;;;;;;60.78;11.25;;;19.90;60.60;;;;;;5102687;28;20096;-50
2024/03/21 07:39:48;;;;;;;56.17;11.63;;;19.90;61.10;;;;;;5099390;28;20072;-57
2024/03/21 07:42:14;;;;;;;58.08;13.23;;;19.90;60.30;;;;;;5096886;28;20507;-49
2024/03/21 07:44:41;;;;;;;49.40;13.68;;;20.00;59.60;;;;;;5104251;28;20202;-53
2024/03/21 07:47:07;;;;;;;56.42;13.70;;;20.00;59.20;;;;;;5098024;27;20663;-53
2024/03/21 07:49:33;;;;;;;63.00;14.02;;;20.00;59.60;;;;;;5101577;28;20074;-51
2024/03/21 07:52:01;;;;;;;66.20;14.85;;;19.90;59.60;;;;;;5101710;28;20079;-53
2024/03/21 07:54:32;;;;;;;63.00;14.85;;;19.80;60.90;;;;;;5101482;28;20187;-50
2024/03/21 07:56:59;;;;;;;62.33;15.10;;;19.70;61.30;;;;;;5103759;28;20542;-50
2024/03/21 07:59:25;;;;;;;66.90;15.75;;;19.70;60.80;;;;;;5103915;28;20069;-50
2024/03/21 08:01:52;;;;;;;59.20;16.48;;;19.70;60.70;;;;;;5108950;28;20071;-53
2024/03/21 08:04:19;;;;;;;70.78;16.80;;;19.50;61.70;;;;;;5107404;28;20403;-52
2024/03/21 08:06:46;;;;;;;72.13;17.35;;;19.50;61.20;;;;;;5107610;27;20076;-53
2024/03/21 08:09:13;;;;;;;83.95;17.00;;;19.50;61.20;;;;;;5102941;28;20100;-51
2024/03/21 08:11:39;;;;;;;70.75;17.30;;;19.40;62.10;;;;;;5106038;28;20510;-52
2024/03/21 08:14:06;;;;;;;63.80;16.40;;;19.40;63.10;;;;;;5101888;28;20064;-50
2024/03/21 08:16:32;;;;;;;68.60;16.23;;;19.40;62.00;;;;;;5107963;28;20117;-54
2024/03/21 08:18:58;;;;;;;91.43;31.67;;;19.30;62.00;;;;;;5106874;28;20522;-53
2024/03/21 08:21:25;;;;;;;81.50;17.48;;;19.30;62.90;;;;;;5101443;28;20091;-52
2024/03/21 08:23:51;;;;;;;88.25;17.67;;;19.30;61.90;;;;;;5108287;28;20064;-51
2024/03/21 08:26:19;;;;;;;66.20;17.17;;;19.40;62.20;;;;;;5108115;28;20068;-49
2024/03/21 08:28:45;;;;;;;74.78;16.02;;;19.30;63.20;;;;;;5106236;28;20115;-51
2024/03/21 08:31:12;;;;;;;75.85;17.20;;;19.20;63.70;;;;;;5108151;28;20510;-49
2024/03/21 08:33:38;;;;;;;84.85;16.02;;;19.20;63.60;;;;;;5108034;28;20060;-51
2024/03/21 08:36:06;;;;;;;76.70;16.05;;;19.30;63.80;;;;;;5106907;28;20068;-50
2024/03/21 08:38:33;;;;;;;72.38;17.10;;;19.30;63.20;;;;;;5103220;28;20095;-52
2024/03/21 08:40:59;;;;;;;76.68;17.23;;;19.20;65.10;;;;;;5106893;28;20145;-52
2024/03/21 08:43:25;;;;;;;75.72;17.60;;;19.10;64.40;;;;;;5108242;28;20068;-50
2024/03/21 08:45:53;;;;;;;71.95;17.45;;;19.00;64.70;;;;;;5100391;28;20072;-53
2024/03/21 08:48:20;;;;;;;86.80;18.00;;;18.90;64.90;;;;;;5107304;28;20064;-53
2024/03/21 08:50:47;;;;;;;75.32;17.67;;;18.90;65.90;;;;;;5105897;28;20064;-52
2024/03/21 08:53:15;;;;;;;89.85;17.30;;;18.80;66.60;;;;;;5107544;28;20072;-53
2024/03/21 08:55:41;;;;;;;80.10;18.88;;;18.80;65.60;;;;;;5108598;28;20083;-49
2024/03/21 08:58:08;;;;;;;87.30;18.98;;;18.90;65.50;;;;;;5107236;28;20123;-49
2024/03/21 09:00:37;;;;;;;72.80;17.70;;;18.90;64.90;;;;;;5105834;28;20099;-51
2024/03/21 09:03:04;;;;;;;95.40;19.40;;;18.90;65.00;;;;;;5110571;28;20100;-50
2024/03/21 09:05:31;;;;;;;74.78;17.08;;;18.90;65.20;;;;;;5110933;28;20065;-56
2024/03/21 09:07:58;;;;;;;72.85;18.67;;;18.80;66.90;;;;;;5112674;27;20087;-49
2024/03/21 09:10:25;;;;;;;67.55;17.90;;;18.70;65.80;;;;;;5112361;28;20067;-50
2024/03/21 09:12:51;;;;;;;71.05;19.65;;;18.60;66.20;;;;;;5110802;28;20117;-51
2024/03/21 09:15:18;;;;;;;76.13;21.35;;;18.50;66.10;;;;;;5105957;28;20068;-48
2024/03/21 09:17:45;;;;;;;102.30;24.02;;;18.50;65.90;;;;;;5110897;28;20099;-50
2024/03/21 09:20:12;;;;;;;96.32;25.13;;;18.40;66.70;;;;;;5112238;28;20069;-50
2024/03/21 09:22:39;;;;;;;91.43;23.98;;;18.40;65.90;;;;;;5108978;28;20079;-50
2024/03/21 09:25:06;;;;;;;93.28;25.13;;;18.30;67.00;;;;;;5106658;28;20076;-53
2024/03/21 09:27:33;;;;;;;90.85;23.45;;;18.50;67.00;;;;;;5112624;28;20167;-48
2024/03/21 09:29:59;;;;;;;97.55;25.33;;;18.50;66.20;;;;;;5109708;28;20112;-50
2024/03/21 09:32:26;;;;;;;95.82;23.50;;;18.60;66.10;;;;;;5111890;27;20099;-50
2024/03/21 09:34:52;;;;;;;83.03;23.15;;;18.40;66.40;;;;;;5106687;28;20083;-49
2024/03/21 09:37:19;;;;;;;83.22;23.02;;;18.40;66.40;;;;;;5111751;28;20644;-52
2024/03/21 09:39:46;;;;;;;83.95;21.75;;;18.40;66.40;;;;;;5111717;28;20069;-49
2024/03/21 09:42:18;;;;;;;96.75;22.55;;;18.40;66.50;;;;;;5105696;28;20075;-49
2024/03/21 09:44:49;;;;;;;70.40;20.58;;;18.20;68.00;;;;;;5111120;28;20533;-52
2024/03/21 09:47:20;;;;;;;85.60;21.33;;;18.10;67.90;;;;;;5108987;28;20068;-51
2024/03/21 09:49:50;;;;;;;88.25;21.67;;;18.20;70.30;;;;;;5111777;28;20084;-57
2024/03/21 09:52:17;;;;;;;69.22;20.67;;;18.20;68.30;;;;;;5111376;28;20072;-50
2024/03/21 09:54:44;;;;;;;61.13;20.92;;;18.30;67.90;;;;;;5106709;28;20407;-52
2024/03/21 09:57:14;;;;;;;76.90;20.30;;;18.30;68.30;;;;;;5110454;28;20103;-51
2024/03/21 09:59:42;;;;;;;77.78;19.40;;;18.20;67.80;;;;;;5105538;28;20073;-53
2024/03/21 10:02:12;;;;;;;76.22;20.02;;;18.20;67.70;;;;;;5112326;28;20151;-53
2024/03/21 10:04:47;;;;;;;72.30;20.92;;;18.10;67.30;;;;;;5108268;28;20133;-53
2024/03/21 10:07:24;;;;;;;69.88;18.92;;;18.10;67.70;;;;;;5110620;28;20152;-52
2024/03/21 10:09:58;;;;;;;63.15;18.90;;;18.00;68.00;;;;;;5111921;28;20076;-49
2024/03/21 10:12:25;;;;;;;59.75;18.25;;;17.90;68.40;;;;;;5105751;28;20093;-49
2024/03/21 10:14:56;;;;;;;63.55;17.88;;;17.90;69.00;;;;;;5109016;28;20647;-49
2024/03/21 10:17:26;;;;;;;63.92;17.63;;;17.80;69.10;;;;;;5111416;28;20107;-49
2024/03/21 10:19:57;;;;;;;63.97;18.67;;;17.80;69.30;;;;;;5109719;28;20210;-53
2024/03/21 10:22:24;;;;;;;71.68;18.13;;;17.70;69.20;;;;;;5109265;28;20080;-49
2024/03/21 10:24:55;;;;;;;53.40;17.38;;;17.60;68.90;;;;;;5111694;28;20091;-52
2024/03/21 10:27:24;;;;;;;61.75;16.20;;;17.50;69.90;;;;;;5110233;27;20076;-53
2024/03/21 10:29:51;;;;;;;56.40;16.20;;;17.60;69.30;;;;;;5102947;28;20148;-51
2024/03/21 10:32:19;;;;;;;58.63;15.93;;;17.70;68.90;;;;;;5109562;27;20068;-54
2024/03/21 10:34:54;;;;;;;51.58;15.20;;;17.80;68.60;;;;;;5107945;27;20079;-52
2024/03/21 10:37:22;;;;;;;61.63;15.30;;;17.80;68.30;;;;;;5109653;27;20241;-52
2024/03/21 10:39:51;;;;;;;49.40;15.40;;;17.80;68.10;;;;;;5107646;28;20072;-51
2024/03/21 10:42:28;;;;;;;52.42;15.05;;;17.70;68.50;;;;;;5109017;28;20196;-50
2024/03/21 10:45:05;;;;;;;45.63;14.40;;;17.70;68.80;;;;;;5107237;28;20129;-48
2024/03/21 10:47:32;;;;;;;53.63;15.18;;;17.70;69.70;;;;;;5105771;28;20577;-50
2024/03/21 10:49:59;;;;;;;49.47;14.88;;;17.60;70.30;;;;;;5108840;27;20068;-48
2024/03/21 10:52:25;;;;;;;55.42;13.93;;;17.50;71.30;;;;;;5107626;28;20068;-50
2024/03/21 10:54:53;;;;;;;60.25;13.55;;;17.40;70.20;;;;;;5110240;28;20068;-49
2024/03/21 10:57:23;;;;;;;50.10;13.40;;;17.30;70.50;;;;;;5109208;28;20103;-48
2024/03/21 10:59:56;;;;;;;56.17;13.95;;;17.40;70.30;;;;;;5109535;28;20068;-52
2024/03/21 11:02:27;;;;;;;41.00;13.10;;;17.50;70.30;;;;;;5109310;28;20084;-52
2024/03/21 11:04:55;;;;;;;41.70;13.38;;;17.50;70.00;;;;;;5098782;28;20453;-49
2024/03/21 11:07:22;;;;;;;47.33;12.68;;;17.40;70.60;;;;;;5110064;28;20061;-49
2024/03/21 11:09:50;;;;;;;50.05;13.75;;;17.40;71.10;;;;;;5110741;27;20078;-49
2024/03/21 11:12:16;;;;;;;47.70;12.90;;;17.40;71.70;;;;;;5104271;28;20072;-52
2024/03/21 11:14:45;;;;;;;37.90;12.68;;;17.30;71.60;;;;;;5106003;27;20068;-48
2024/03/21 11:17:15;;;;;;;43.22;13.05;;;17.30;72.10;;;;;;5108058;28;20480;-51
2024/03/21 11:19:42;;;;;;;39.45;12.60;;;17.40;72.30;;;;;;5107142;28;20106;-51
2024/03/21 11:22:13;;;;;;;39.35;12.43;;;17.40;71.80;;;;;;5109080;27;20079;-51
2024/03/21 11:24:40;;;;;;;35.58;13.95;;;17.30;72.10;;;;;;5107418;28;20098;-51
2024/03/21 11:27:17;;;;;;;52.90;16.45;;;17.30;72.70;;;;;;5108981;28;20080;-50
2024/03/21 11:29:44;;;;;;;44.10;15.95;;;17.20;72.90;;;;;;5105001;28;20107;-49
2024/03/21 11:32:12;;;;;;;50.17;16.00;;;17.30;72.20;;;;;;5107644;28;20068;-51
2024/03/21 11:34:40;;;;;;;42.35;15.93;;;17.30;71.70;;;;;;5108798;28;20080;-49
2024/03/21 11:37:13;;;;;;;46.00;14.68;;;17.30;72.20;;;;;;5108049;27;20107;-51
2024/03/21 11:39:40;;;;;;;37.55;13.55;;;17.20;72.30;;;;;;5103880;28;20083;-53
2024/03/21 11:42:19;;;;;;;39.85;15.07;;;17.20;72.60;;;;;;5109083;28;20109;-51
2024/03/21 11:44:48;;;;;;;44.92;13.93;;;17.20;72.70;;;;;;5103706;28;20087;-52
2024/03/21 11:47:16;;;;;;;46.03;14.00;;;17.20;73.20;;;;;;5108614;28;20072;-51
2024/03/21 11:49:49;;;;;;;46.00;13.10;;;17.10;73.20;;;;;;5107769;28;20068;-52
2024/03/21 11:52:17;;;;;;;35.03;14.02;;;17.10;73.10;;;;;;5099682;28;20068;-52
2024/03/21 11:54:44;;;;;;;47.47;13.75;;;17.10;73.50;;;;;;5108699;28;20107;-47
2024/03/21 11:57:15;;;;;;;43.95;14.88;;;17.10;72.90;;;;;;5108692;28;20096;-50
2024/03/21 11:59:46;;;;;;;40.65;14.00;;;17.10;73.00;;;;;;5107428;27;20103;-48
2024/03/21 12:02:14;;;;;;;33.17;12.35;;;17.00;72.80;;;;;;5107870;28;20985;-52
2024/03/21 12:04:41;;;;;;;37.92;13.15;;;17.00;73.40;;;;;;5109683;28;20518;-50
2024/03/21 12:07:12;;;;;;;55.00;14.55;;;16.90;73.50;;;;;;5108473;28;20071;-51
2024/03/21 12:09:38;;;;;;;37.08;14.05;;;17.00;73.60;;;;;;5108350;28;20067;-48
2024/03/21 12:12:08;;;;;;;41.92;13.80;;;16.90;73.40;;;;;;5107958;28;20079;-49
2024/03/21 12:14:34;;;;;;;45.75;13.85;;;16.90;73.50;;;;;;5107990;28;20548;-49
2024/03/21 12:17:01;;;;;;;42.90;14.00;;;16.80;74.20;;;;;;5107573;28;20068;-50
2024/03/21 12:19:28;;;;;;;48.05;13.38;;;16.80;74.00;;;;;;5107044;28;20078;-51
2024/03/21 12:21:54;;;;;;;51.13;14.07;;;16.80;74.20;;;;;;5109056;28;20072;-52
2024/03/21 12:24:21;;;;;;;45.45;14.80;;;16.60;74.70;;;;;;5106721;28;20064;-51
2024/03/21 12:26:47;;;;;;;56.58;18.52;;;16.60;74.90;;;;;;5108439;28;20114;-51
2024/03/21 12:29:14;;;;;;;59.25;17.58;;;16.50;75.20;;;;;;5097860;28;20116;-47
2024/03/21 12:31:40;;;;;;;50.70;16.83;;;16.40;75.50;;;;;;5095606;28;20470;-48
2024/03/21 12:34:07;;;;;;;65.97;18.15;;;16.40;76.20;;;;;;5106604;28;20531;-51
2024/03/21 12:36:34;;;;;;;58.15;17.45;;;16.40;75.90;;;;;;5107639;28;20078;-51